createdAt,value
2018-11-29T00:02:16.876Z,33.02
2018-11-29T00:04:45.035Z,33.25
2018-11-29T00:07:13.239Z,35.08
2018-11-29T00:09:41.412Z,30.08
2018-11-29T00:12:09.624Z,32.38
2018-11-29T00:14:37.790Z,31.42
2018-11-29T00:17:05.972Z,31.70
2018-11-29T00:19:34.165Z,30.82
2018-11-29T00:22:02.343Z,31.55
2018-11-29T00:24:30.539Z,28.75
2018-11-29T00:26:58.712Z,31.12
2018-11-29T00:29:26.903Z,31.42
2018-11-29T00:31:55.116Z,30.82
2018-11-29T00:34:23.380Z,32.15
2018-11-29T00:36:51.567Z,29.95
2018-11-29T00:39:19.755Z,32.25
2018-11-29T00:41:47.964Z,32.17
2018-11-29T00:44:16.140Z,34.48
2018-11-29T00:46:44.312Z,33.38
2018-11-29T00:49:12.521Z,30.55
2018-11-29T00:51:40.688Z,28.35
2018-11-29T00:54:08.889Z,30.60
2018-11-29T00:56:37.063Z,34.80
2018-11-29T00:59:05.255Z,31.37
2018-11-29T01:01:33.441Z,31.90
2018-11-29T01:04:01.631Z,35.13
2018-11-29T01:06:29.782Z,34.67
2018-11-29T01:08:57.868Z,31.23
2018-11-29T01:11:25.956Z,30.40
2018-11-29T01:13:54.037Z,29.40
2018-11-29T01:16:22.133Z,29.65
2018-11-29T01:18:50.312Z,32.90
2018-11-29T01:21:18.396Z,32.83
2018-11-29T01:23:46.484Z,31.57
2018-11-29T01:26:14.563Z,31.42
2018-11-29T01:28:42.648Z,34.08
2018-11-29T01:31:10.753Z,33.30
2018-11-29T01:33:38.916Z,35.80
2018-11-29T01:36:07.235Z,31.62
2018-11-29T01:38:35.392Z,32.58
2018-11-29T01:41:03.484Z,34.38
2018-11-29T01:43:31.564Z,34.60
2018-11-29T01:45:59.653Z,31.75
2018-11-29T01:48:27.828Z,35.13
2018-11-29T01:50:55.928Z,31.25
2018-11-29T01:53:24.104Z,34.10
2018-11-29T01:55:52.201Z,33.05
2018-11-29T01:58:20.270Z,36.38
2018-11-29T02:00:48.364Z,36.55
2018-11-29T02:03:16.540Z,39.55
2018-11-29T02:05:44.644Z,36.35
2018-11-29T02:08:12.848Z,33.40
2018-11-29T02:10:46.503Z,36.38
2018-11-29T02:13:14.899Z,39.08
2018-11-29T02:15:43.068Z,38.53
2018-11-29T02:18:11.238Z,38.30
2018-11-29T02:20:39.420Z,38.50
2018-11-29T02:23:07.603Z,36.40
2018-11-29T02:25:35.783Z,40.55
2018-11-29T02:28:03.983Z,42.78
2018-11-29T02:30:32.164Z,41.42
2018-11-29T02:33:00.349Z,44.98
2018-11-29T02:35:28.532Z,39.00
2018-11-29T02:37:56.732Z,41.35
2018-11-29T02:40:24.901Z,40.95
2018-11-29T02:42:53.100Z,40.85
2018-11-29T02:45:24.725Z,44.18
2018-11-29T02:47:52.854Z,42.93
2018-11-29T02:50:21.032Z,38.65
2018-11-29T02:52:49.244Z,43.80
2018-11-29T02:55:17.412Z,41.73
2018-11-29T02:57:45.690Z,40.95
2018-11-29T03:00:15.661Z,43.70
2018-11-29T03:02:43.832Z,41.68
2018-11-29T03:05:12.021Z,42.10
2018-11-29T03:07:40.197Z,41.48
2018-11-29T03:10:09.568Z,42.90
2018-11-29T03:12:37.701Z,44.05
2018-11-29T03:15:08.708Z,45.58
2018-11-29T03:17:36.828Z,43.38
2018-11-29T03:20:06.512Z,43.42
2018-11-29T03:22:34.632Z,45.25
2018-11-29T03:25:02.843Z,39.90
2018-11-29T03:27:30.997Z,42.85
2018-11-29T03:29:59.196Z,40.73
2018-11-29T03:32:27.377Z,43.78
2018-11-29T03:34:55.567Z,45.75
2018-11-29T03:37:23.756Z,42.58
2018-11-29T03:39:51.943Z,47.73
2018-11-29T03:42:20.116Z,46.83
2018-11-29T03:44:48.316Z,48.80
2018-11-29T03:47:16.500Z,47.30
2018-11-29T03:49:44.693Z,50.95
2018-11-29T03:52:12.876Z,47.45
2018-11-29T03:54:41.064Z,47.13
2018-11-29T03:57:09.238Z,47.80
2018-11-29T03:59:37.439Z,41.73
2018-11-29T04:02:06.078Z,45.20
2018-11-29T04:04:34.228Z,45.40
2018-11-29T04:07:02.411Z,45.88
2018-11-29T04:09:30.610Z,50.78
2018-11-29T04:11:58.781Z,50.80
2018-11-29T04:14:26.999Z,46.50
2018-11-29T04:16:55.268Z,46.77
2018-11-29T04:19:23.464Z,50.23
2018-11-29T04:21:51.637Z,44.58
2018-11-29T04:24:19.840Z,47.62
2018-11-29T04:26:48.008Z,46.08
2018-11-29T04:29:16.200Z,46.08
2018-11-29T04:31:44.403Z,50.52
2018-11-29T04:34:12.572Z,45.88
2018-11-29T04:36:40.770Z,45.88
2018-11-29T04:39:08.967Z,47.98
2018-11-29T04:41:37.145Z,49.48
2018-11-29T04:44:05.351Z,47.60
2018-11-29T04:46:43.660Z,49.48
2018-11-29T04:49:11.852Z,45.20
2018-11-29T04:51:40.039Z,45.78
2018-11-29T04:54:08.885Z,46.83
2018-11-29T04:56:37.027Z,46.83
2018-11-29T04:59:05.232Z,48.87
2018-11-29T05:01:33.463Z,51.00
2018-11-29T05:04:01.616Z,47.80
2018-11-29T05:06:29.757Z,48.80
2018-11-29T05:08:57.949Z,50.38
2018-11-29T05:11:26.128Z,45.78
2018-11-29T05:13:54.299Z,48.98
2018-11-29T05:16:22.412Z,47.88
2018-11-29T05:18:50.584Z,47.20
2018-11-29T05:21:18.788Z,44.55
2018-11-29T05:23:46.968Z,46.00
2018-11-29T05:26:15.152Z,47.03
2018-11-29T05:28:43.344Z,48.13
2018-11-29T05:31:11.532Z,48.35
2018-11-29T05:33:39.710Z,45.25
2018-11-29T05:36:07.913Z,48.73
2018-11-29T05:38:36.092Z,50.75
2018-11-29T05:41:04.277Z,49.00
2018-11-29T05:43:32.456Z,47.33
2018-11-29T05:46:00.656Z,52.33
2018-11-29T05:48:28.825Z,47.98
2018-11-29T05:50:57.040Z,53.25
2018-11-29T05:53:25.201Z,48.55
2018-11-29T05:55:53.517Z,51.18
2018-11-29T05:58:21.688Z,50.15
2018-11-29T06:00:49.869Z,52.90
2018-11-29T06:03:18.076Z,54.58
2018-11-29T06:05:46.264Z,53.92
2018-11-29T06:08:14.456Z,49.23
2018-11-29T06:10:42.636Z,54.00
2018-11-29T06:13:10.827Z,47.55
2018-11-29T06:15:39.228Z,52.78
2018-11-29T06:18:07.434Z,57.53
2018-11-29T06:20:35.601Z,45.03
2018-11-29T06:23:03.780Z,48.23
2018-11-29T06:25:31.960Z,47.33
2018-11-29T06:28:00.152Z,48.13
2018-11-29T06:30:28.334Z,40.25
2018-11-29T06:32:56.523Z,53.58
2018-11-29T06:35:24.636Z,44.90
2018-11-29T06:37:52.793Z,51.83
2018-11-29T06:40:20.976Z,46.92
2018-11-29T06:42:49.188Z,51.23
2018-11-29T06:45:19.256Z,45.95
2018-11-29T06:47:48.188Z,52.40
2018-11-29T06:50:16.392Z,51.37
2018-11-29T06:52:45.364Z,49.35
2018-11-29T06:55:15.190Z,53.80
2018-11-29T06:57:43.315Z,52.00
2018-11-29T07:00:14.455Z,50.90
2018-11-29T07:02:42.657Z,50.43
2018-11-29T07:05:10.833Z,51.90
2018-11-29T07:07:39.039Z,53.58
2018-11-29T07:10:08.816Z,47.53
2018-11-29T07:12:38.050Z,52.67
2018-11-29T07:15:09.897Z,53.10
2018-11-29T07:17:38.043Z,51.45
2018-11-29T07:20:11.196Z,51.77
2018-11-29T07:22:39.588Z,50.75
2018-11-29T07:25:08.596Z,53.83
2018-11-29T07:27:37.284Z,55.98
2018-11-29T07:30:15.544Z,53.40
2018-11-29T07:32:43.752Z,58.02
2018-11-29T07:35:13.108Z,51.70
2018-11-29T07:37:41.496Z,55.12
2018-11-29T07:40:17.375Z,53.70
2018-11-29T07:42:46.796Z,51.40
2018-11-29T07:45:18.050Z,55.15
2018-11-29T07:47:46.416Z,51.65
2018-11-29T07:50:15.756Z,54.80
2018-11-29T07:52:43.863Z,51.35
2018-11-29T07:55:14.292Z,50.15
2018-11-29T07:57:42.964Z,54.23
2018-11-29T08:00:13.028Z,50.67
2018-11-29T08:02:41.256Z,53.25
2018-11-29T08:05:10.629Z,46.80
2018-11-29T08:07:39.473Z,55.17
2018-11-29T08:10:11.180Z,52.10
2018-11-29T08:12:39.301Z,44.88
2018-11-29T08:15:08.990Z,50.83
2018-11-29T08:17:37.107Z,47.67
2018-11-29T08:20:11.407Z,51.40
2018-11-29T08:22:39.658Z,52.33
2018-11-29T08:25:08.596Z,47.03
2018-11-29T08:27:36.716Z,50.85
2018-11-29T08:30:13.400Z,53.15
2018-11-29T08:32:41.587Z,51.65
2018-11-29T08:35:11.583Z,57.75
2018-11-29T08:37:40.579Z,47.78
2018-11-29T08:40:23.664Z,58.35
2018-11-29T08:42:51.848Z,52.60
2018-11-29T08:45:20.041Z,56.68
2018-11-29T08:47:48.221Z,54.35
2018-11-29T08:50:16.421Z,49.18
2018-11-29T08:52:45.372Z,51.92
2018-11-29T08:55:14.388Z,48.52
2018-11-29T08:57:42.532Z,50.35
2018-11-29T09:00:12.923Z,50.10
2018-11-29T09:02:41.167Z,50.38
2018-11-29T09:05:10.311Z,55.40
2018-11-29T09:07:38.511Z,50.98
2018-11-29T09:10:10.169Z,46.68
2018-11-29T09:12:38.267Z,52.58
2018-11-29T09:15:11.146Z,50.60
2018-11-29T09:17:39.396Z,54.13
2018-11-29T09:20:11.516Z,47.23
2018-11-29T09:22:39.633Z,52.90
2018-11-29T09:25:10.053Z,50.12
2018-11-29T09:27:38.256Z,50.88
2018-11-29T09:30:16.961Z,51.10
2018-11-29T09:32:45.687Z,49.93
2018-11-29T09:35:13.920Z,47.80
2018-11-29T09:37:42.093Z,48.63
2018-11-29T09:40:11.241Z,49.93
2018-11-29T09:42:39.577Z,46.42
2018-11-29T09:45:24.451Z,47.67
2018-11-29T09:47:53.535Z,48.58
2018-11-29T09:51:25.073Z,46.80
2018-11-29T09:53:53.209Z,48.45
2018-11-29T09:56:21.404Z,43.40
2018-11-29T09:58:49.584Z,47.67
2018-11-29T10:01:17.787Z,45.98
2018-11-29T10:03:45.964Z,48.70
2018-11-29T10:06:14.158Z,43.70
2018-11-29T10:08:42.328Z,43.65
2018-11-29T10:11:10.521Z,46.23
2018-11-29T10:13:38.704Z,41.85
2018-11-29T10:16:06.894Z,42.95
2018-11-29T10:18:35.081Z,43.35
2018-11-29T10:21:03.293Z,43.80
2018-11-29T10:23:31.556Z,39.08
2018-11-29T10:25:59.736Z,42.83
2018-11-29T10:28:27.928Z,45.12
2018-11-29T10:30:57.519Z,38.02
2018-11-29T10:33:25.651Z,42.55
2018-11-29T10:35:58.842Z,42.93
2018-11-29T10:38:21.996Z,42.50
2018-11-29T10:40:50.196Z,42.70
2018-11-29T10:43:18.386Z,40.45
2018-11-29T10:45:46.589Z,43.13
2018-11-29T10:48:16.343Z,41.88
2018-11-29T10:50:44.474Z,40.55
2018-11-29T10:53:12.664Z,46.80
2018-11-29T10:55:40.853Z,38.83
2018-11-29T10:58:09.052Z,41.68
2018-11-29T11:00:42.576Z,42.43
2018-11-29T11:03:16.303Z,41.25
2018-11-29T11:05:44.457Z,42.38
2018-11-29T11:08:12.644Z,39.88
2018-11-29T11:10:40.855Z,49.15
2018-11-29T11:13:09.016Z,41.45
2018-11-29T11:15:37.582Z,42.85
2018-11-29T11:18:06.900Z,40.75
2018-11-29T11:20:35.048Z,40.35
2018-11-29T11:23:03.201Z,36.08
2018-11-29T11:25:31.589Z,39.10
2018-11-29T11:27:59.778Z,40.75
2018-11-29T11:30:27.884Z,39.83
2018-11-29T11:32:56.047Z,40.60
2018-11-29T11:35:24.228Z,39.13
2018-11-29T11:37:52.424Z,36.80
2018-11-29T11:40:20.611Z,40.17
2018-11-29T11:42:48.801Z,42.15
2018-11-29T11:45:18.095Z,41.40
2018-11-29T11:47:46.590Z,41.58
2018-11-29T11:50:18.724Z,41.65
2018-11-29T11:52:46.954Z,38.17
2018-11-29T11:55:18.965Z,41.63
2018-11-29T11:57:43.838Z,38.98
2018-11-29T12:00:14.164Z,40.03
2018-11-29T12:02:42.885Z,41.05
2018-11-29T12:05:11.464Z,41.15
2018-11-29T12:07:39.592Z,40.58
2018-11-29T12:10:09.465Z,42.70
2018-11-29T12:12:37.632Z,39.90
2018-11-29T12:15:07.896Z,38.30
2018-11-29T12:17:36.024Z,40.03
2018-11-29T12:20:05.189Z,45.38
2018-11-29T12:22:33.304Z,42.90
2018-11-29T12:25:01.605Z,40.12
2018-11-29T12:27:29.777Z,41.83
2018-11-29T12:29:57.974Z,40.85
2018-11-29T12:32:26.156Z,46.48
2018-11-29T12:34:54.265Z,43.55
2018-11-29T12:37:22.420Z,44.13
2018-11-29T12:39:50.619Z,45.28
2018-11-29T12:42:18.792Z,41.90
2018-11-29T12:44:46.992Z,44.70
2018-11-29T12:47:15.168Z,37.83
2018-11-29T12:49:43.363Z,42.98
2018-11-29T12:52:11.552Z,35.38
2018-11-29T12:54:39.753Z,38.08
2018-11-29T12:57:07.924Z,37.08
2018-11-29T12:59:36.112Z,39.95
2018-11-29T13:02:04.349Z,40.67
2018-11-29T13:04:32.485Z,41.95
2018-11-29T13:07:00.676Z,42.20
2018-11-29T13:09:28.863Z,38.42
2018-11-29T13:11:57.043Z,38.48
2018-11-29T13:14:25.229Z,39.27
2018-11-29T13:16:53.404Z,40.17
2018-11-29T13:19:21.623Z,38.88
2018-11-29T13:21:49.821Z,34.73
2018-11-29T13:24:17.984Z,40.17
2018-11-29T13:26:46.224Z,38.85
2018-11-29T13:29:14.356Z,40.23
2018-11-29T13:31:42.532Z,39.98
2018-11-29T13:34:10.741Z,39.35
2018-11-29T13:36:38.908Z,43.35
2018-11-29T13:39:09.471Z,42.13
2018-11-29T13:41:37.006Z,39.05
2018-11-29T13:44:05.332Z,39.50
2018-11-29T13:46:33.508Z,41.85
2018-11-29T13:49:01.697Z,35.33
2018-11-29T13:51:29.888Z,36.53
2018-11-29T13:53:58.064Z,38.65
2018-11-29T13:56:26.260Z,39.88
2018-11-29T13:58:55.248Z,42.33
2018-11-29T14:01:23.440Z,39.92
2018-11-29T14:03:51.624Z,40.48
2018-11-29T14:06:19.816Z,36.83
2018-11-29T14:08:47.996Z,37.20
2018-11-29T14:11:16.200Z,39.63
2018-11-29T14:13:44.371Z,41.02
2018-11-29T14:16:12.566Z,38.45
2018-11-29T14:18:40.752Z,37.85
2018-11-29T14:21:08.944Z,33.58
2018-11-29T14:23:37.124Z,38.23
2018-11-29T14:26:05.332Z,38.60
2018-11-29T14:28:33.504Z,35.58
2018-11-29T14:31:01.698Z,36.38
2018-11-29T14:33:29.930Z,40.33
2018-11-29T14:35:58.060Z,40.65
2018-11-29T14:38:26.245Z,40.48
2018-11-29T14:40:54.443Z,40.15
2018-11-29T14:43:22.608Z,41.73
2018-11-29T14:45:50.841Z,36.77
2018-11-29T14:48:18.993Z,41.28
2018-11-29T14:50:47.359Z,44.23
2018-11-29T14:53:15.464Z,43.38
2018-11-29T14:55:43.656Z,40.52
2018-11-29T14:58:13.040Z,42.40
2018-11-29T15:00:41.198Z,45.35
2018-11-29T15:03:14.740Z,44.40
2018-11-29T15:05:43.142Z,43.42
2018-11-29T15:08:11.359Z,43.35
2018-11-29T15:10:39.536Z,44.55
2018-11-29T15:13:08.720Z,39.33
2018-11-29T15:15:37.109Z,39.58
2018-11-29T15:18:05.812Z,40.63
2018-11-29T15:20:42.203Z,39.90
2018-11-29T15:23:11.188Z,38.25
2018-11-29T15:25:39.308Z,42.08
2018-11-29T15:28:07.503Z,36.30
2018-11-29T15:30:35.693Z,39.83
2018-11-29T15:33:03.872Z,40.65
2018-11-29T15:35:32.047Z,38.45
2018-11-29T15:38:00.252Z,34.88
2018-11-29T15:40:28.427Z,38.28
2018-11-29T15:42:56.625Z,40.65
2018-11-29T15:45:25.892Z,55.35
2018-11-29T15:47:54.024Z,59.42
2018-11-29T15:50:22.204Z,41.80
2018-11-29T15:52:50.394Z,41.58
2018-11-29T15:55:19.462Z,37.73
2018-11-29T15:57:48.388Z,35.45
2018-11-29T16:00:24.445Z,35.52
2018-11-29T16:02:53.039Z,37.42
2018-11-29T16:05:21.152Z,36.20
2018-11-29T16:07:49.352Z,34.25
2018-11-29T16:10:18.832Z,38.58
2018-11-29T16:12:46.971Z,36.50
2018-11-29T16:15:15.906Z,36.98
2018-11-29T16:17:44.626Z,36.60
2018-11-29T16:20:17.170Z,34.18
2018-11-29T16:22:45.140Z,38.02
2018-11-29T16:25:13.320Z,37.13
2018-11-29T16:27:41.514Z,36.85
2018-11-29T16:30:14.981Z,35.95
2018-11-29T16:32:43.112Z,34.90
2018-11-29T16:35:11.292Z,36.03
2018-11-29T16:37:39.480Z,40.25
2018-11-29T16:40:08.648Z,45.10
2018-11-29T16:42:37.160Z,36.48
2018-11-29T16:45:08.500Z,40.50
2018-11-29T16:47:36.636Z,36.28
2018-11-29T16:50:05.903Z,36.38
2018-11-29T16:52:34.028Z,38.90
2018-11-29T16:55:02.220Z,37.42
2018-11-29T16:57:30.389Z,38.17
2018-11-29T16:59:58.596Z,43.52
2018-11-29T17:02:26.775Z,36.13
2018-11-29T17:04:54.976Z,35.80
2018-11-29T17:07:23.124Z,39.78
2018-11-29T17:09:51.315Z,36.90
2018-11-29T17:12:21.772Z,38.50
2018-11-29T17:14:51.251Z,41.25
2018-11-29T17:17:19.363Z,36.90
2018-11-29T17:19:47.552Z,39.38
2018-11-29T17:22:16.652Z,36.28
2018-11-29T17:24:44.857Z,36.00
2018-11-29T17:27:13.024Z,38.30
2018-11-29T17:29:41.236Z,38.67
2018-11-29T17:32:09.399Z,35.92
2018-11-29T17:34:37.591Z,45.28
2018-11-29T17:37:05.836Z,43.60
2018-11-29T17:39:33.985Z,39.40
2018-11-29T17:42:02.152Z,37.50
2018-11-29T17:44:30.343Z,39.63
2018-11-29T17:46:58.516Z,37.65
2018-11-29T17:49:26.724Z,34.35
2018-11-29T17:51:54.903Z,35.20
2018-11-29T17:54:23.095Z,38.20
2018-11-29T17:56:51.301Z,36.08
2018-11-29T17:59:19.467Z,37.98
2018-11-29T18:01:47.652Z,37.78
2018-11-29T18:04:15.839Z,36.63
2018-11-29T18:06:43.949Z,42.05
2018-11-29T18:09:12.548Z,39.30
2018-11-29T18:11:40.704Z,41.33
2018-11-29T18:14:08.912Z,39.05
2018-11-29T18:16:37.076Z,37.28
2018-11-29T18:19:05.296Z,36.63
2018-11-29T18:21:33.456Z,37.13
2018-11-29T18:24:01.854Z,37.28
2018-11-29T18:26:30.033Z,36.45
2018-11-29T18:28:58.205Z,37.05
2018-11-29T18:31:26.404Z,34.30
2018-11-29T18:33:54.589Z,37.93
2018-11-29T18:36:23.640Z,36.13
2018-11-29T18:38:50.957Z,36.93
2018-11-29T18:41:19.149Z,34.27
2018-11-29T18:43:47.375Z,34.88
2018-11-29T18:46:17.250Z,37.17
2018-11-29T18:48:43.988Z,32.63
2018-11-29T18:51:12.103Z,35.92
2018-11-29T18:53:40.333Z,30.60
2018-11-29T18:56:08.483Z,32.80
2018-11-29T18:58:36.660Z,36.05
2018-11-29T19:01:05.033Z,36.55
2018-11-29T19:03:33.140Z,35.90
2018-11-29T19:06:01.324Z,31.07
2018-11-29T19:08:29.516Z,35.15
2018-11-29T19:10:57.719Z,32.75
2018-11-29T19:13:25.885Z,33.40
2018-11-29T19:15:54.078Z,32.03
2018-11-29T19:18:22.252Z,34.83
2018-11-29T19:20:50.360Z,32.10
2018-11-29T19:23:18.524Z,32.93
2018-11-29T19:25:46.724Z,37.85
2018-11-29T19:28:14.903Z,33.02
2018-11-29T19:30:43.100Z,35.65
2018-11-29T19:33:17.523Z,33.67
2018-11-29T19:35:45.181Z,33.73
2018-11-29T19:38:13.379Z,33.92
2018-11-29T19:40:41.705Z,36.05
2018-11-29T19:43:09.761Z,35.25
2018-11-29T19:45:38.123Z,34.95
2018-11-29T19:48:07.440Z,31.37
2018-11-29T19:50:35.568Z,31.57
2018-11-29T19:53:05.244Z,32.65
2018-11-29T19:55:34.161Z,37.05
2018-11-29T19:58:02.360Z,32.60
2018-11-29T20:00:30.544Z,35.25
2018-11-29T20:02:58.884Z,33.45
2018-11-29T20:05:27.025Z,30.35
2018-11-29T20:07:55.216Z,34.18
2018-11-29T20:10:23.400Z,31.93
2018-11-29T20:12:59.191Z,35.65
2018-11-29T20:15:27.444Z,33.08
2018-11-29T20:17:55.592Z,31.48
2018-11-29T20:20:23.734Z,29.75
2018-11-29T20:22:51.923Z,31.40
2018-11-29T20:25:21.303Z,32.30
2018-11-29T20:27:49.420Z,31.40
2018-11-29T20:30:20.535Z,27.17
2018-11-29T20:32:49.551Z,27.65
2018-11-29T20:35:18.244Z,28.05
2018-11-29T20:37:46.639Z,29.65
2018-11-29T20:40:15.852Z,27.65
2018-11-29T20:42:44.760Z,28.98
2018-11-29T20:45:19.599Z,30.50
2018-11-29T20:47:47.715Z,29.70
2018-11-29T20:50:17.500Z,27.52
2018-11-29T20:52:46.208Z,28.98
2018-11-29T20:55:19.406Z,26.48
2018-11-29T20:57:47.535Z,33.15
2018-11-29T21:00:15.831Z,25.40
2018-11-29T21:02:44.131Z,28.45
2018-11-29T21:05:14.720Z,31.15
2018-11-29T21:07:44.443Z,29.45
2018-11-29T21:10:15.896Z,32.70
2018-11-29T21:12:44.040Z,30.80
2018-11-29T21:15:12.208Z,36.70
2018-11-29T21:17:40.392Z,29.12
2018-11-29T21:20:11.735Z,30.17
2018-11-29T21:22:39.914Z,25.55
2018-11-29T21:25:11.583Z,26.15
2018-11-29T21:27:39.700Z,30.35
2018-11-29T21:30:10.832Z,36.40
2018-11-29T21:32:38.940Z,27.42
2018-11-29T21:35:07.876Z,26.60
2018-11-29T21:37:36.024Z,31.33
2018-11-29T21:40:10.096Z,28.02
2018-11-29T21:42:39.249Z,26.45
2018-11-29T21:45:06.444Z,25.27
2018-11-29T21:47:34.623Z,26.50
2018-11-29T21:50:02.851Z,25.27
2018-11-29T21:52:30.944Z,22.90
2018-11-29T21:54:59.075Z,27.58
2018-11-29T21:57:27.260Z,27.00
2018-11-29T21:59:55.448Z,27.50
2018-11-29T22:02:23.628Z,24.07
2018-11-29T22:04:51.825Z,24.57
2018-11-29T22:07:19.999Z,24.70
2018-11-29T22:09:48.187Z,27.22
2018-11-29T22:12:16.383Z,27.42
2018-11-29T22:14:44.574Z,24.95
2018-11-29T22:17:12.753Z,23.90
2018-11-29T22:19:40.938Z,24.55
2018-11-29T22:22:09.133Z,26.07
2018-11-29T22:24:37.320Z,27.77
2018-11-29T22:27:05.760Z,26.42
2018-11-29T22:29:33.914Z,24.52
2018-11-29T22:32:02.415Z,27.52
2018-11-29T22:34:30.577Z,30.20
2018-11-29T22:36:58.768Z,26.87
2018-11-29T22:39:27.011Z,26.27
2018-11-29T22:41:55.265Z,28.27
2018-11-29T22:44:23.521Z,24.65
2018-11-29T22:46:51.712Z,27.07
2018-11-29T22:49:19.911Z,29.45
2018-11-29T22:51:48.088Z,30.32
2018-11-29T22:54:16.284Z,27.15
2018-11-29T22:56:44.472Z,25.43
2018-11-29T22:59:12.643Z,24.85
2018-11-29T23:01:40.868Z,26.12
2018-11-29T23:04:09.046Z,25.90
2018-11-29T23:06:37.236Z,26.82
2018-11-29T23:09:08.347Z,33.23
2018-11-29T23:11:37.176Z,28.12
2018-11-29T23:14:06.176Z,26.10
2018-11-29T23:16:34.447Z,28.52
2018-11-29T23:19:02.663Z,28.02
2018-11-29T23:21:30.861Z,24.47
2018-11-29T23:23:59.041Z,31.93
2018-11-29T23:26:27.324Z,25.05
2018-11-29T23:28:55.413Z,27.98
2018-11-29T23:31:23.596Z,30.05
2018-11-29T23:33:51.792Z,26.57
2018-11-29T23:36:19.980Z,27.13
2018-11-29T23:38:48.164Z,26.37
2018-11-29T23:41:16.353Z,27.55
2018-11-29T23:43:44.537Z,25.77
2018-11-29T23:46:12.732Z,28.67
2018-11-29T23:48:40.909Z,26.57
2018-11-29T23:51:09.107Z,26.35
2018-11-29T23:53:37.327Z,30.23
2018-11-29T23:56:05.480Z,24.45
2018-11-29T23:58:33.660Z,30.55
